createdAt,value
2022-12-31T00:02:18.996Z,97419.34
2022-12-31T00:04:45.694Z,97428.72
2022-12-31T00:07:12.350Z,97422.81
2022-12-31T00:09:39.058Z,97431.41
2022-12-31T00:12:05.875Z,97425.75
2022-12-31T00:14:32.415Z,97421.75
2022-12-31T00:16:59.016Z,97425.59
2022-12-31T00:19:25.677Z,97423.75
2022-12-31T00:21:52.305Z,97415.47
2022-12-31T00:24:18.901Z,97411.25
2022-12-31T00:26:45.503Z,97402.47
2022-12-31T00:29:12.257Z,97406.03
2022-12-31T00:31:39.413Z,97396.09
2022-12-31T00:34:07.141Z,97393.63
2022-12-31T00:36:37.321Z,97399.97
2022-12-31T00:39:06.131Z,97410.31
2022-12-31T00:41:32.803Z,97411.00
2022-12-31T00:43:59.707Z,97404.72
2022-12-31T00:46:26.608Z,97417.00
2022-12-31T00:48:53.531Z,97412.34
2022-12-31T00:51:23.268Z,97410.41
2022-12-31T00:53:50.276Z,97406.06
2022-12-31T00:56:20.235Z,97400.63
2022-12-31T00:58:47.450Z,97402.81
2022-12-31T01:01:20.014Z,97406.06
2022-12-31T01:03:48.946Z,97399.63
2022-12-31T01:06:16.252Z,97413.38
2022-12-31T01:08:43.838Z,97401.88
2022-12-31T01:11:24.606Z,97410.50
2022-12-31T01:13:54.893Z,97426.88
2022-12-31T01:16:25.453Z,97423.44
2022-12-31T01:18:53.058Z,97418.84
2022-12-31T01:21:21.013Z,97415.06
2022-12-31T01:23:47.985Z,97405.13
2022-12-31T01:26:16.656Z,97404.94
2022-12-31T01:28:43.286Z,97399.75
2022-12-31T01:31:12.881Z,97414.84
2022-12-31T01:33:40.549Z,97422.06
2022-12-31T01:36:11.484Z,97414.53
2022-12-31T01:38:38.607Z,97411.16
2022-12-31T01:41:05.619Z,97416.03
2022-12-31T01:43:54.224Z,97413.22
2022-12-31T01:46:25.848Z,97418.13
2022-12-31T01:48:57.829Z,97407.44
2022-12-31T01:51:27.317Z,97416.03
2022-12-31T01:53:54.783Z,97411.19
2022-12-31T01:56:22.911Z,97423.53
2022-12-31T01:58:52.339Z,97415.50
2022-12-31T02:01:29.102Z,97424.09
2022-12-31T02:03:57.912Z,97415.69
2022-12-31T02:06:32.016Z,97408.91
2022-12-31T02:08:58.652Z,97400.91
2022-12-31T02:11:28.976Z,97403.31
2022-12-31T02:14:00.570Z,97383.47
2022-12-31T02:16:46.161Z,97407.63
2022-12-31T02:19:43.627Z,97398.44
2022-12-31T02:22:38.715Z,97400.22
2022-12-31T02:25:30.053Z,97400.94
2022-12-31T02:28:44.772Z,97403.66
2022-12-31T02:31:35.469Z,97387.22
2022-12-31T02:34:21.868Z,97395.03
2022-12-31T02:36:52.093Z,97395.94
2022-12-31T02:39:18.721Z,97405.25
2022-12-31T02:41:52.083Z,97393.59
2022-12-31T02:44:38.750Z,97405.06
2022-12-31T02:47:11.492Z,97404.19
2022-12-31T02:49:53.193Z,97406.06
2022-12-31T02:52:38.370Z,97387.41
2022-12-31T02:55:49.946Z,97384.13
2022-12-31T02:58:46.424Z,97383.25
2022-12-31T03:01:36.993Z,97382.13
2022-12-31T03:04:24.452Z,97374.97
2022-12-31T03:06:52.555Z,97368.06
2022-12-31T03:09:19.216Z,97357.97
2022-12-31T03:12:04.961Z,97348.50
2022-12-31T03:14:31.501Z,97334.41
2022-12-31T03:16:58.104Z,97343.53
2022-12-31T03:19:43.032Z,97344.06
2022-12-31T03:22:27.885Z,97325.75
2022-12-31T03:25:20.331Z,97308.25
2022-12-31T03:27:47.433Z,97355.56
2022-12-31T03:30:16.889Z,97370.34
2022-12-31T03:32:45.114Z,97372.47
2022-12-31T03:35:14.155Z,97364.88
2022-12-31T03:37:41.324Z,97379.44
2022-12-31T03:40:11.052Z,97384.38
2022-12-31T03:42:37.869Z,97385.81
2022-12-31T03:45:05.359Z,97381.13
2022-12-31T03:47:32.011Z,97388.44
2022-12-31T03:49:58.647Z,97385.94
2022-12-31T03:52:25.177Z,97387.53
2022-12-31T03:54:51.717Z,97372.38
2022-12-31T03:57:18.411Z,97395.31
2022-12-31T03:59:45.027Z,97406.75
2022-12-31T04:02:11.758Z,97400.31
2022-12-31T04:04:38.432Z,97395.72
2022-12-31T04:07:04.993Z,97402.72
2022-12-31T04:09:31.569Z,97407.13
2022-12-31T04:11:58.338Z,97402.09
2022-12-31T04:14:24.930Z,97397.28
2022-12-31T04:16:51.612Z,97404.66
2022-12-31T04:19:18.272Z,97400.66
2022-12-31T04:21:44.897Z,97405.53
2022-12-31T04:24:11.610Z,97413.88
2022-12-31T04:26:38.582Z,97414.88
2022-12-31T04:29:05.696Z,97415.91
2022-12-31T04:31:33.355Z,97423.69
2022-12-31T04:33:59.961Z,97418.81
2022-12-31T04:36:27.286Z,97426.63
2022-12-31T04:38:53.980Z,97420.28
2022-12-31T04:41:21.185Z,97445.16
2022-12-31T04:43:50.498Z,97437.75
2022-12-31T04:46:19.679Z,97437.97
2022-12-31T04:48:46.427Z,97434.16
2022-12-31T04:51:13.994Z,97429.78
2022-12-31T04:53:41.216Z,97428.75
2022-12-31T04:56:08.815Z,97441.59
2022-12-31T04:58:36.953Z,97439.41
2022-12-31T05:01:04.016Z,97442.81
2022-12-31T05:03:31.290Z,97440.31
2022-12-31T05:06:02.780Z,97448.94
2022-12-31T05:08:30.003Z,97452.94
2022-12-31T05:10:56.715Z,97472.88
2022-12-31T05:13:28.068Z,97464.47
2022-12-31T05:15:59.587Z,97471.19
2022-12-31T05:18:26.443Z,97469.28
2022-12-31T05:20:53.068Z,97460.06
2022-12-31T05:23:19.910Z,97457.38
2022-12-31T05:25:47.900Z,97410.88
2022-12-31T05:28:15.475Z,97445.53
2022-12-31T05:30:43.032Z,97453.06
2022-12-31T05:33:10.032Z,97454.66
2022-12-31T05:35:37.216Z,97456.06
2022-12-31T05:38:03.890Z,97455.84
2022-12-31T05:40:30.485Z,97445.03
2022-12-31T05:42:57.129Z,97448.75
2022-12-31T05:45:30.143Z,97448.75
2022-12-31T05:47:57.504Z,97454.34
2022-12-31T05:50:24.344Z,97457.88
2022-12-31T05:52:50.888Z,97457.88
2022-12-31T05:55:17.715Z,97457.88
2022-12-31T05:57:44.383Z,97457.88
2022-12-31T06:00:11.751Z,97460.84
2022-12-31T06:02:38.516Z,97457.03
2022-12-31T06:05:05.811Z,97468.69
2022-12-31T06:07:32.460Z,97482.72
2022-12-31T06:09:59.194Z,97484.81
2022-12-31T06:12:25.942Z,97481.63
2022-12-31T06:14:52.608Z,97479.09
2022-12-31T06:17:19.288Z,97485.63
2022-12-31T06:19:46.930Z,97481.03
2022-12-31T06:22:13.666Z,97481.03
2022-12-31T06:24:40.280Z,97488.63
2022-12-31T06:27:06.898Z,97498.53
2022-12-31T06:29:33.618Z,97491.94
2022-12-31T06:32:00.374Z,97493.25
2022-12-31T06:34:27.053Z,97496.47
2022-12-31T06:36:53.606Z,97491.56
2022-12-31T06:39:20.159Z,97492.53
2022-12-31T06:41:47.176Z,97494.16
2022-12-31T06:44:14.957Z,97492.78
2022-12-31T06:46:41.664Z,97489.44
2022-12-31T06:49:09.485Z,97491.06
2022-12-31T06:51:36.156Z,97487.25
2022-12-31T06:54:02.757Z,97475.34
2022-12-31T06:56:34.392Z,97476.75
2022-12-31T06:59:03.250Z,97476.81
2022-12-31T07:01:48.371Z,97483.75
2022-12-31T07:04:32.967Z,97478.53
2022-12-31T07:07:21.472Z,97468.03
2022-12-31T07:10:29.769Z,97495.19
2022-12-31T07:13:17.718Z,97504.78
2022-12-31T07:15:52.821Z,97503.59
2022-12-31T07:18:43.864Z,97512.41
2022-12-31T07:21:16.533Z,97525.84
2022-12-31T07:23:43.763Z,97522.06
2022-12-31T07:26:42.729Z,97518.72
2022-12-31T07:29:18.972Z,97513.03
2022-12-31T07:32:16.453Z,97522.16
2022-12-31T07:35:04.919Z,97507.22
2022-12-31T07:37:45.092Z,97509.81
2022-12-31T07:40:17.816Z,97515.94
2022-12-31T07:43:12.306Z,97519.91
2022-12-31T07:46:01.531Z,97536.06
2022-12-31T07:48:29.142Z,97538.19
2022-12-31T07:50:57.467Z,97551.00
2022-12-31T07:53:26.108Z,97534.94
2022-12-31T07:55:59.883Z,97537.53
2022-12-31T07:58:33.190Z,97526.59
2022-12-31T08:01:00.653Z,97532.22
2022-12-31T08:04:09.662Z,97529.59
2022-12-31T08:07:13.832Z,97521.63
2022-12-31T08:09:49.196Z,97508.50
2022-12-31T08:12:16.605Z,97515.88
2022-12-31T08:14:46.118Z,97523.50
2022-12-31T08:17:18.094Z,97520.59
2022-12-31T08:19:45.968Z,97521.69
2022-12-31T08:22:50.399Z,97527.41
2022-12-31T08:25:23.722Z,97528.91
2022-12-31T08:28:04.883Z,97523.03
2022-12-31T08:30:52.328Z,97524.69
2022-12-31T08:33:40.459Z,97536.72
2022-12-31T08:36:45.589Z,97550.19
2022-12-31T08:39:35.961Z,97551.19
2022-12-31T08:42:12.266Z,97540.34
2022-12-31T08:44:41.852Z,97544.66
2022-12-31T08:47:32.883Z,97546.41
2022-12-31T08:50:02.532Z,97537.91
2022-12-31T08:52:29.393Z,97542.06
2022-12-31T08:54:56.283Z,97551.94
2022-12-31T08:57:59.381Z,97558.84
2022-12-31T09:00:27.753Z,97560.31
2022-12-31T09:03:20.836Z,97565.75
2022-12-31T09:06:12.984Z,97550.41
2022-12-31T09:08:55.844Z,97551.53
2022-12-31T09:11:33.124Z,97549.16
2022-12-31T09:14:08.655Z,97533.50
2022-12-31T09:17:00.159Z,97533.97
2022-12-31T09:19:27.249Z,97539.25
2022-12-31T09:21:54.229Z,97527.56
2022-12-31T09:24:21.607Z,97538.59
2022-12-31T09:26:51.138Z,97533.34
2022-12-31T09:29:29.759Z,97534.63
2022-12-31T09:31:56.418Z,97526.34
2022-12-31T09:34:41.452Z,97523.75
2022-12-31T09:37:16.505Z,97528.84
2022-12-31T09:39:46.738Z,97526.13
2022-12-31T09:42:51.038Z,97528.34
2022-12-31T09:45:47.458Z,97530.31
2022-12-31T09:48:35.777Z,97531.91
2022-12-31T09:51:25.255Z,97537.81
2022-12-31T09:53:52.250Z,97538.94
2022-12-31T09:57:06.905Z,97523.22
2022-12-31T09:59:34.462Z,97525.31
2022-12-31T10:02:34.837Z,97517.91
2022-12-31T10:05:31.379Z,97525.09
2022-12-31T10:08:10.197Z,97523.19
2022-12-31T10:11:17.022Z,97511.97
2022-12-31T10:14:06.744Z,97510.84
2022-12-31T10:16:51.505Z,97515.50
2022-12-31T10:19:34.595Z,97501.91
2022-12-31T10:22:35.401Z,97513.91
2022-12-31T10:25:38.360Z,97515.50
2022-12-31T10:28:31.188Z,97513.69
2022-12-31T10:31:11.332Z,97523.75
2022-12-31T10:34:06.776Z,97518.09
2022-12-31T10:37:02.249Z,97523.03
2022-12-31T10:39:50.834Z,97520.59
2022-12-31T10:42:39.077Z,97528.25
2022-12-31T10:45:39.639Z,97528.09
2022-12-31T10:48:37.055Z,97525.16
2022-12-31T10:51:15.443Z,97533.50
2022-12-31T10:54:18.984Z,97525.94
2022-12-31T10:57:11.358Z,97519.66
2022-12-31T10:59:56.909Z,97531.50
2022-12-31T11:02:29.803Z,97531.19
2022-12-31T11:05:03.169Z,97524.59
2022-12-31T11:08:01.812Z,97522.81
2022-12-31T11:11:00.972Z,97526.47
2022-12-31T11:13:57.950Z,97513.50
2022-12-31T11:16:43.091Z,97522.75
2022-12-31T11:19:31.512Z,97519.72
2022-12-31T11:22:04.022Z,97513.91
2022-12-31T11:25:02.108Z,97518.25
2022-12-31T11:28:03.369Z,97514.38
2022-12-31T11:30:36.934Z,97516.28
2022-12-31T11:33:21.876Z,97522.22
2022-12-31T11:36:09.371Z,97501.53
2022-12-31T11:38:51.045Z,97509.06
2022-12-31T11:41:42.683Z,97510.31
2022-12-31T11:44:30.151Z,97500.69
2022-12-31T11:47:04.498Z,97499.75
2022-12-31T11:49:31.095Z,97506.81
2022-12-31T11:52:35.280Z,97500.88
2022-12-31T11:55:20.654Z,97492.75
2022-12-31T11:57:50.730Z,97505.78
2022-12-31T12:00:28.536Z,97498.69
2022-12-31T12:03:03.566Z,97496.22
2022-12-31T12:05:30.863Z,97490.53
2022-12-31T12:07:57.710Z,97498.41
2022-12-31T12:10:35.608Z,97497.28
2022-12-31T12:13:13.746Z,97501.59
2022-12-31T12:15:44.795Z,97503.53
2022-12-31T12:18:25.235Z,97502.41
2022-12-31T12:20:52.050Z,97491.72
2022-12-31T12:23:26.105Z,97501.25
2022-12-31T12:25:53.378Z,97491.00
2022-12-31T12:28:26.927Z,97499.34
2022-12-31T12:31:05.153Z,97494.69
2022-12-31T12:33:43.871Z,97503.34
2022-12-31T12:36:13.851Z,97495.94
2022-12-31T12:38:40.434Z,97496.75
2022-12-31T12:41:20.247Z,97485.16
2022-12-31T12:43:47.226Z,97474.72
2022-12-31T12:46:27.788Z,97476.63
2022-12-31T12:48:56.799Z,97483.09
2022-12-31T12:52:01.762Z,97490.81
2022-12-31T12:54:59.521Z,97494.34
2022-12-31T12:57:41.011Z,97481.50
2022-12-31T13:00:21.078Z,97483.88
2022-12-31T13:03:06.065Z,97487.06
2022-12-31T13:06:00.337Z,97480.19
2022-12-31T13:08:33.244Z,97477.88
2022-12-31T13:11:19.016Z,97478.34
2022-12-31T13:14:05.469Z,97479.28
2022-12-31T13:16:50.578Z,97462.13
2022-12-31T13:19:46.763Z,97478.03
2022-12-31T13:22:30.308Z,97467.44
2022-12-31T13:25:16.948Z,97473.25
2022-12-31T13:27:48.253Z,97467.66
2022-12-31T13:30:28.250Z,97462.66
2022-12-31T13:33:05.312Z,97466.97
2022-12-31T13:35:47.501Z,97472.31
2022-12-31T13:38:24.294Z,97483.34
2022-12-31T13:41:03.093Z,97495.06
2022-12-31T13:44:10.766Z,97502.00
2022-12-31T13:46:46.462Z,97503.91
2022-12-31T13:49:32.043Z,97509.72
2022-12-31T13:52:43.212Z,97500.41
2022-12-31T13:55:20.329Z,97515.19
2022-12-31T13:57:55.462Z,97516.31
2022-12-31T14:00:31.359Z,97514.25
2022-12-31T14:03:11.032Z,97516.31
2022-12-31T14:05:51.838Z,97509.25
2022-12-31T14:08:19.010Z,97510.25
2022-12-31T14:11:29.495Z,97524.44
2022-12-31T14:14:25.620Z,97529.28
2022-12-31T14:17:01.421Z,97531.41
2022-12-31T14:19:55.656Z,97530.28
2022-12-31T14:22:39.322Z,97527.53
2022-12-31T14:25:22.607Z,97530.94
2022-12-31T14:27:53.492Z,97540.25
2022-12-31T14:30:23.280Z,97527.97
2022-12-31T14:33:29.873Z,97533.19
2022-12-31T14:36:14.207Z,97527.97
2022-12-31T14:39:06.303Z,97531.06
2022-12-31T14:41:51.587Z,97533.41
2022-12-31T14:44:23.011Z,97532.63
2022-12-31T14:47:04.882Z,97545.66
2022-12-31T14:50:03.765Z,97538.66
2022-12-31T14:52:46.763Z,97539.31
2022-12-31T14:55:36.946Z,97541.41
2022-12-31T14:58:29.444Z,97539.19
2022-12-31T15:01:01.625Z,97534.09
2022-12-31T15:03:31.364Z,97526.09
2022-12-31T15:06:06.087Z,97533.94
2022-12-31T15:09:07.620Z,97535.69
2022-12-31T15:11:56.662Z,97536.63
2022-12-31T15:14:51.170Z,97546.69
2022-12-31T15:17:17.785Z,97556.94
2022-12-31T15:20:14.986Z,97544.22
2022-12-31T15:22:50.669Z,97546.31
2022-12-31T15:25:36.949Z,97549.19
2022-12-31T15:28:21.166Z,97551.56
2022-12-31T15:30:49.753Z,97549.31
2022-12-31T15:33:30.133Z,97546.59
2022-12-31T15:35:57.853Z,97545.19
2022-12-31T15:38:34.924Z,97562.75
2022-12-31T15:41:24.780Z,97542.41
2022-12-31T15:44:02.222Z,97562.44
2022-12-31T15:46:33.842Z,97560.97
2022-12-31T15:49:09.003Z,97554.38
2022-12-31T15:52:07.437Z,97553.13
2022-12-31T15:54:44.327Z,97557.97
2022-12-31T15:57:30.001Z,97560.22
2022-12-31T16:00:08.997Z,97565.53
2022-12-31T16:02:39.388Z,97574.97
2022-12-31T16:05:08.697Z,97558.66
2022-12-31T16:07:35.705Z,97557.91
2022-12-31T16:10:04.159Z,97572.28
2022-12-31T16:12:39.456Z,97581.59
2022-12-31T16:15:24.691Z,97578.41
2022-12-31T16:18:06.097Z,97578.41
2022-12-31T16:20:34.399Z,97576.66
2022-12-31T16:23:03.428Z,97578.13
2022-12-31T16:25:33.566Z,97579.56
2022-12-31T16:28:03.199Z,97586.47
2022-12-31T16:30:32.559Z,97577.69
2022-12-31T16:33:02.549Z,97587.94
2022-12-31T16:35:36.564Z,97590.19
2022-12-31T16:38:10.219Z,97580.41
2022-12-31T16:40:36.948Z,97586.78
2022-12-31T16:43:04.386Z,97589.97
2022-12-31T16:45:38.702Z,97581.84
2022-12-31T16:48:17.188Z,97591.13
2022-12-31T16:50:46.996Z,97600.13
2022-12-31T16:53:18.161Z,97595.31
2022-12-31T16:56:19.991Z,97588.28
2022-12-31T16:58:46.625Z,97591.19
2022-12-31T17:01:20.916Z,97609.91
2022-12-31T17:03:52.473Z,97596.94
2022-12-31T17:06:21.176Z,97599.66
2022-12-31T17:09:00.795Z,97599.34
2022-12-31T17:11:33.226Z,97598.06
2022-12-31T17:14:05.927Z,97594.09
2022-12-31T17:16:34.698Z,97588.78
2022-12-31T17:19:01.819Z,97583.34
2022-12-31T17:21:31.447Z,97592.47
2022-12-31T17:24:03.300Z,97596.16
2022-12-31T17:26:37.157Z,97600.47
2022-12-31T17:29:06.130Z,97606.09
2022-12-31T17:31:40.440Z,97604.63
2022-12-31T17:34:13.055Z,97596.16
2022-12-31T17:37:15.913Z,97602.22
2022-12-31T17:39:46.488Z,97607.03
2022-12-31T17:42:24.787Z,97607.97
2022-12-31T17:44:56.704Z,97616.09
2022-12-31T17:47:23.399Z,97614.97
2022-12-31T17:49:50.206Z,97613.06
2022-12-31T17:52:16.775Z,97611.13
2022-12-31T17:54:43.446Z,97609.03
2022-12-31T17:57:24.273Z,97606.31
2022-12-31T17:59:51.111Z,97605.19
2022-12-31T18:02:17.812Z,97607.44
2022-12-31T18:04:44.616Z,97615.47
2022-12-31T18:07:11.228Z,97611.97
2022-12-31T18:09:37.861Z,97612.75
2022-12-31T18:12:06.192Z,97627.00
2022-12-31T18:14:33.484Z,97623.16
2022-12-31T18:17:00.804Z,97618.34
2022-12-31T18:20:02.933Z,97635.00
2022-12-31T18:22:16.232Z,97634.97
2022-12-31T18:24:44.047Z,97622.66
2022-12-31T18:27:18.539Z,97615.75
2022-12-31T18:29:45.500Z,97622.00
2022-12-31T18:32:24.148Z,97633.22
2022-12-31T18:34:51.421Z,97638.06
2022-12-31T18:37:22.065Z,97635.66
2022-12-31T18:39:49.368Z,97616.00
2022-12-31T18:42:18.599Z,97602.72
2022-12-31T18:44:45.856Z,97634.56
2022-12-31T18:47:14.585Z,97627.81
2022-12-31T18:49:41.554Z,97619.31
2022-12-31T18:52:16.671Z,97635.66
2022-12-31T18:54:43.513Z,97639.50
2022-12-31T18:57:14.920Z,97636.00
2022-12-31T18:59:42.408Z,97647.34
2022-12-31T19:02:20.081Z,97653.59
2022-12-31T19:04:48.158Z,97653.47
2022-12-31T19:07:14.740Z,97659.38
2022-12-31T19:09:46.007Z,97659.03
2022-12-31T19:12:14.276Z,97654.72
2022-12-31T19:14:40.940Z,97644.63
2022-12-31T19:19:32.997Z,97654.25
2022-12-31T19:21:59.567Z,97658.91
2022-12-31T19:24:27.299Z,97640.81
2022-12-31T19:26:54.751Z,97648.78
2022-12-31T19:29:23.925Z,97652.00
2022-12-31T19:31:51.204Z,97656.66
2022-12-31T19:34:17.960Z,97653.59
2022-12-31T19:36:45.088Z,97663.84
2022-12-31T19:39:20.034Z,97666.44
2022-12-31T19:41:51.687Z,97668.50
2022-12-31T19:44:22.945Z,97666.25
2022-12-31T19:46:49.575Z,97651.72
2022-12-31T19:49:16.626Z,97661.00
2022-12-31T19:51:43.408Z,97650.59
2022-12-31T19:54:12.892Z,97659.22
2022-12-31T19:56:39.544Z,97648.19
2022-12-31T19:59:08.142Z,97648.84
2022-12-31T20:01:34.985Z,97659.72
2022-12-31T20:04:01.675Z,97661.19
2022-12-31T20:06:28.318Z,97673.53
2022-12-31T20:08:55.113Z,97657.19
2022-12-31T20:11:23.975Z,97662.94
2022-12-31T20:13:52.785Z,97672.09
2022-12-31T20:16:21.380Z,97673.06
2022-12-31T20:18:51.336Z,97672.59
2022-12-31T20:21:21.673Z,97686.84
2022-12-31T20:23:50.140Z,97682.53
2022-12-31T20:26:17.788Z,97684.13
2022-12-31T20:28:44.521Z,97689.25
2022-12-31T20:31:15.074Z,97695.50
2022-12-31T20:33:42.220Z,97698.06
2022-12-31T20:36:12.494Z,97688.94
2022-12-31T20:38:39.119Z,97683.63
2022-12-31T20:41:11.487Z,97691.81
2022-12-31T20:43:38.864Z,97678.03
2022-12-31T20:46:16.634Z,97671.81
2022-12-31T20:48:46.231Z,97673.72
2022-12-31T20:51:14.348Z,97656.91
2022-12-31T20:53:46.488Z,97651.94
2022-12-31T20:56:13.105Z,97654.03
2022-12-31T20:58:39.682Z,97658.47
2022-12-31T21:01:07.964Z,97653.84
2022-12-31T21:06:28.655Z,97641.69
2022-12-31T21:09:00.158Z,97638.00
2022-12-31T21:11:45.885Z,97666.84
2022-12-31T21:14:12.581Z,97663.94
2022-12-31T21:16:39.319Z,97668.91
2022-12-31T21:19:06.163Z,97682.06
2022-12-31T21:21:33.071Z,97682.38
2022-12-31T21:23:59.752Z,97675.97
2022-12-31T21:26:26.379Z,97682.22
2022-12-31T21:28:53.941Z,97679.00
2022-12-31T21:31:20.784Z,97671.81
2022-12-31T21:33:48.533Z,97677.25
2022-12-31T21:36:15.900Z,97671.00
2022-12-31T21:38:42.667Z,97648.91
2022-12-31T21:41:33.603Z,97667.50
2022-12-31T21:44:01.456Z,97665.25
2022-12-31T21:46:28.419Z,97674.84
2022-12-31T21:48:59.740Z,97672.28
2022-12-31T21:51:27.327Z,97687.66
2022-12-31T21:53:54.360Z,97685.25
2022-12-31T21:56:22.626Z,97693.75
2022-12-31T21:59:14.464Z,97691.66
2022-12-31T22:01:59.772Z,97686.53
2022-12-31T22:07:13.365Z,97699.31
2022-12-31T22:09:39.974Z,97703.16
2022-12-31T22:12:06.711Z,97701.91
2022-12-31T22:14:33.306Z,97698.84
2022-12-31T22:17:00.921Z,97698.03
2022-12-31T22:19:27.582Z,97708.25
2022-12-31T22:21:54.537Z,97703.28
2022-12-31T22:24:21.100Z,97695.59
2022-12-31T22:26:47.640Z,97692.69
2022-12-31T22:29:14.508Z,97704.06
2022-12-31T22:31:41.124Z,97686.78
2022-12-31T22:34:07.821Z,97683.22
2022-12-31T22:36:34.455Z,97682.44
2022-12-31T22:39:01.053Z,97691.03
2022-12-31T22:41:28.350Z,97674.38
2022-12-31T22:44:03.065Z,97691.97
2022-12-31T22:46:31.345Z,97687.34
2022-12-31T22:48:59.655Z,97685.75
2022-12-31T22:51:57.026Z,97696.75
2022-12-31T22:54:15.254Z,97700.59
2022-12-31T22:56:42.068Z,97699.78
2022-12-31T22:59:09.503Z,97701.06
2022-12-31T23:01:36.179Z,97701.88
2022-12-31T23:04:03.721Z,97706.03
2022-12-31T23:06:30.412Z,97701.84
2022-12-31T23:09:32.417Z,97700.88
2022-12-31T23:11:59.742Z,97706.88
2022-12-31T23:14:45.112Z,97703.84
2022-12-31T23:17:44.145Z,97693.41
2022-12-31T23:20:36.001Z,97697.75
2022-12-31T23:23:05.838Z,97701.69
2022-12-31T23:25:34.342Z,97704.25
2022-12-31T23:28:01.191Z,97709.34
2022-12-31T23:30:28.141Z,97691.44
2022-12-31T23:32:54.977Z,97694.22
2022-12-31T23:35:21.858Z,97684.50
2022-12-31T23:37:48.553Z,97683.88
2022-12-31T23:40:20.982Z,97691.91
2022-12-31T23:42:49.119Z,97689.63
2022-12-31T23:45:15.871Z,97692.34
2022-12-31T23:47:42.466Z,97692.06
2022-12-31T23:50:09.127Z,97697.78
2022-12-31T23:52:35.796Z,97686.47
2022-12-31T23:55:03.745Z,97693.84
2022-12-31T23:57:30.659Z,97700.38
2022-12-31T23:59:57.303Z,97702.13
